createdAt,value
2018-09-06T00:02:12.752Z,6.30
2018-09-06T00:04:40.892Z,6.00
2018-09-06T00:07:09.029Z,6.43
2018-09-06T00:09:37.168Z,6.37
2018-09-06T00:12:05.428Z,6.53
2018-09-06T00:14:33.584Z,6.30
2018-09-06T00:17:01.712Z,6.47
2018-09-06T00:19:29.855Z,6.30
2018-09-06T00:21:57.991Z,6.00
2018-09-06T00:24:26.135Z,6.50
2018-09-06T00:26:54.264Z,6.63
2018-09-06T00:29:22.419Z,6.43
2018-09-06T00:31:50.619Z,6.43
2018-09-06T00:34:18.768Z,6.37
2018-09-06T00:36:46.891Z,5.97
2018-09-06T00:39:15.035Z,6.53
2018-09-06T00:41:43.268Z,6.37
2018-09-06T00:44:11.448Z,6.13
2018-09-06T00:46:39.579Z,6.57
2018-09-06T00:49:07.714Z,6.40
2018-09-06T00:51:35.854Z,6.20
2018-09-06T00:54:03.999Z,6.27
2018-09-06T00:56:32.128Z,6.30
2018-09-06T00:59:00.255Z,6.53
2018-09-06T01:01:28.376Z,6.23
2018-09-06T01:03:56.515Z,6.70
2018-09-06T01:06:24.640Z,6.40
2018-09-06T01:08:52.762Z,6.40
2018-09-06T01:11:20.874Z,6.50
2018-09-06T01:13:48.987Z,7.17
2018-09-06T01:16:17.126Z,6.73
2018-09-06T01:18:45.247Z,6.57
2018-09-06T01:21:13.383Z,6.80
2018-09-06T01:23:41.506Z,7.07
2018-09-06T01:26:09.623Z,6.97
2018-09-06T01:28:37.758Z,7.23
2018-09-06T01:31:06.332Z,7.47
2018-09-06T01:33:35.710Z,7.83
2018-09-06T01:36:09.354Z,7.80
2018-09-06T01:38:37.553Z,7.90
2018-09-06T01:41:05.706Z,7.50
2018-09-06T01:43:33.864Z,7.93
2018-09-06T01:46:02.019Z,7.73
2018-09-06T01:48:30.132Z,7.23
2018-09-06T01:50:58.276Z,8.03
2018-09-06T01:53:26.393Z,7.77
2018-09-06T01:55:54.515Z,7.73
2018-09-06T01:58:22.635Z,8.00
2018-09-06T02:00:50.758Z,7.87
2018-09-06T02:03:18.859Z,8.37
2018-09-06T02:05:47.191Z,7.90
2018-09-06T02:08:15.286Z,8.03
2018-09-06T02:10:43.416Z,8.13
2018-09-06T02:13:11.539Z,8.50
2018-09-06T02:15:39.655Z,8.50
2018-09-06T02:18:07.847Z,8.90
2018-09-06T02:20:35.980Z,8.97
2018-09-06T02:23:04.098Z,8.87
2018-09-06T02:25:32.459Z,9.30
2018-09-06T02:28:00.578Z,8.63
2018-09-06T02:30:28.706Z,8.83
2018-09-06T02:32:56.886Z,9.57
2018-09-06T02:35:25.019Z,9.57
2018-09-06T02:37:53.143Z,9.63
2018-09-06T02:40:26.690Z,9.97
2018-09-06T02:42:54.823Z,9.67
2018-09-06T02:45:22.960Z,9.67
2018-09-06T02:47:54.695Z,9.70
2018-09-06T02:50:28.285Z,10.30
2018-09-06T02:52:57.098Z,10.60
2018-09-06T02:55:26.671Z,10.00
2018-09-06T02:57:54.794Z,11.00
2018-09-06T03:00:28.400Z,11.13
2018-09-06T03:02:56.512Z,11.27
2018-09-06T03:05:25.678Z,11.13
2018-09-06T03:07:54.900Z,11.03
2018-09-06T03:10:23.115Z,12.23
2018-09-06T03:12:51.850Z,11.30
2018-09-06T03:15:20.124Z,12.33
2018-09-06T03:17:48.213Z,10.60
2018-09-06T03:20:16.765Z,11.80
2018-09-06T03:22:44.891Z,11.43
2018-09-06T03:25:12.998Z,11.97
2018-09-06T03:27:41.150Z,11.67
2018-09-06T03:30:09.264Z,12.13
2018-09-06T03:32:37.409Z,10.97
2018-09-06T03:35:05.526Z,12.03
2018-09-06T03:37:33.670Z,12.43
2018-09-06T03:40:01.784Z,11.87
2018-09-06T03:42:29.916Z,12.20
2018-09-06T03:44:58.031Z,12.67
2018-09-06T03:47:26.155Z,12.43
2018-09-06T03:49:54.267Z,12.03
2018-09-06T03:52:22.453Z,11.93
2018-09-06T03:54:50.574Z,12.50
2018-09-06T03:57:18.695Z,12.20
2018-09-06T03:59:46.875Z,13.20
2018-09-06T04:02:15.130Z,12.80
2018-09-06T04:04:43.252Z,11.97
2018-09-06T04:07:11.371Z,11.70
2018-09-06T04:09:39.495Z,12.47
2018-09-06T04:12:07.611Z,12.90
2018-09-06T04:14:35.734Z,12.13
2018-09-06T04:17:03.859Z,13.17
2018-09-06T04:19:31.990Z,12.87
2018-09-06T04:22:00.115Z,12.30
2018-09-06T04:24:28.349Z,12.57
2018-09-06T04:26:56.372Z,12.50
2018-09-06T04:29:24.527Z,12.50
2018-09-06T04:31:52.652Z,12.20
2018-09-06T04:34:20.787Z,12.43
2018-09-06T04:36:48.922Z,12.37
2018-09-06T04:39:17.062Z,12.37
2018-09-06T04:41:45.178Z,12.27
2018-09-06T04:44:13.306Z,12.57
2018-09-06T04:46:41.422Z,12.70
2018-09-06T04:49:09.558Z,12.97
2018-09-06T04:51:37.727Z,12.30
2018-09-06T04:54:05.936Z,11.57
2018-09-06T04:56:34.058Z,12.70
2018-09-06T04:59:02.192Z,12.70
2018-09-06T05:01:30.308Z,12.57
2018-09-06T05:03:58.464Z,12.23
2018-09-06T05:06:26.592Z,12.50
2018-09-06T05:08:54.734Z,12.30
2018-09-06T05:11:22.863Z,12.70
2018-09-06T05:13:51.002Z,13.00
2018-09-06T05:16:19.122Z,12.93
2018-09-06T05:18:47.251Z,13.43
2018-09-06T05:21:15.379Z,12.80
2018-09-06T05:23:43.515Z,13.13
2018-09-06T05:26:11.642Z,13.30
2018-09-06T05:28:39.801Z,13.33
2018-09-06T05:31:08.153Z,13.40
2018-09-06T05:33:36.279Z,13.53
2018-09-06T05:36:04.433Z,12.53
2018-09-06T05:38:32.565Z,13.30
2018-09-06T05:41:00.723Z,13.40
2018-09-06T05:43:28.885Z,12.67
2018-09-06T05:45:57.018Z,12.70
2018-09-06T05:48:25.143Z,12.70
2018-09-06T05:50:53.283Z,12.80
2018-09-06T05:53:21.435Z,12.90
2018-09-06T05:55:49.557Z,12.57
2018-09-06T05:58:17.990Z,12.37
2018-09-06T06:00:48.181Z,12.93
2018-09-06T06:03:16.298Z,12.80
2018-09-06T06:05:44.418Z,12.63
2018-09-06T06:08:24.058Z,12.03
2018-09-06T06:10:52.224Z,12.13
2018-09-06T06:13:20.331Z,11.77
2018-09-06T06:15:48.486Z,11.83
2018-09-06T06:18:16.587Z,11.67
2018-09-06T06:20:44.714Z,12.30
2018-09-06T06:23:12.842Z,12.00
2018-09-06T06:25:40.985Z,11.33
2018-09-06T06:28:09.227Z,12.03
2018-09-06T06:30:37.380Z,12.13
2018-09-06T06:33:05.503Z,11.70
2018-09-06T06:35:33.654Z,13.00
2018-09-06T06:38:01.794Z,12.53
2018-09-06T06:40:29.927Z,12.13
2018-09-06T06:42:58.107Z,11.80
2018-09-06T06:45:26.243Z,12.23
2018-09-06T06:47:54.356Z,12.07
2018-09-06T06:50:22.548Z,11.57
2018-09-06T06:52:50.678Z,11.63
2018-09-06T06:55:18.846Z,11.13
2018-09-06T06:57:46.955Z,11.40
2018-09-06T07:00:15.134Z,11.43
2018-09-06T07:02:43.247Z,11.70
2018-09-06T07:05:11.384Z,11.47
2018-09-06T07:07:39.507Z,10.73
2018-09-06T07:10:07.647Z,10.63
2018-09-06T07:12:35.771Z,10.20
2018-09-06T07:15:03.903Z,9.67
2018-09-06T07:17:32.032Z,10.33
2018-09-06T07:20:00.148Z,9.53
2018-09-06T07:22:28.279Z,9.70
2018-09-06T07:24:56.396Z,9.97
2018-09-06T07:27:24.538Z,9.60
2018-09-06T07:29:52.659Z,9.97
2018-09-06T07:32:20.878Z,9.67
2018-09-06T07:34:48.997Z,8.33
2018-09-06T07:37:17.118Z,8.93
2018-09-06T07:39:45.307Z,8.77
2018-09-06T07:42:13.489Z,9.20
2018-09-06T07:44:41.606Z,8.50
2018-09-06T07:47:09.751Z,8.47
2018-09-06T07:49:37.869Z,8.77
2018-09-06T07:52:06.082Z,7.90
2018-09-06T07:54:34.196Z,8.43
2018-09-06T07:57:02.319Z,7.67
2018-09-06T07:59:30.439Z,7.87
2018-09-06T08:01:58.556Z,7.27
2018-09-06T08:04:26.662Z,7.03
2018-09-06T08:06:54.785Z,7.27
2018-09-06T08:09:22.895Z,7.53
2018-09-06T08:14:25.610Z,6.83
2018-09-06T08:16:53.746Z,7.17
2018-09-06T08:19:21.863Z,6.60
2018-09-06T08:21:49.983Z,6.80
2018-09-06T08:24:18.128Z,6.93
2018-09-06T08:26:46.243Z,6.80
2018-09-06T08:29:14.361Z,6.63
2018-09-06T08:31:49.299Z,6.57
2018-09-06T08:34:17.414Z,6.57
2018-09-06T08:36:45.566Z,7.20
2018-09-06T08:39:13.667Z,6.50
2018-09-06T08:41:41.786Z,6.87
2018-09-06T08:44:10.006Z,6.10
2018-09-06T08:46:38.179Z,6.40
2018-09-06T08:49:06.315Z,6.80
2018-09-06T08:51:34.483Z,6.20
2018-09-06T08:54:02.738Z,7.33
2018-09-06T08:56:30.893Z,7.00
2018-09-06T08:58:59.010Z,6.30
2018-09-06T09:01:32.569Z,6.70
2018-09-06T09:04:00.696Z,6.22
2018-09-06T09:06:29.227Z,6.28
2018-09-06T09:08:57.354Z,6.17
2018-09-06T09:11:25.503Z,6.92
2018-09-06T09:13:53.625Z,6.55
2018-09-06T09:16:21.753Z,6.55
2018-09-06T09:18:49.873Z,6.75
2018-09-06T09:21:18.091Z,6.72
2018-09-06T09:23:46.262Z,6.83
2018-09-06T09:26:14.371Z,6.78
2018-09-06T09:28:42.502Z,6.15
2018-09-06T09:31:10.613Z,6.50
2018-09-06T09:33:38.730Z,6.35
2018-09-06T09:36:06.865Z,6.60
2018-09-06T09:38:34.970Z,6.60
2018-09-06T09:41:03.094Z,7.53
2018-09-06T09:43:31.214Z,6.30
2018-09-06T09:48:26.711Z,6.47
2018-09-06T09:50:54.827Z,6.60
2018-09-06T09:53:22.950Z,7.03
2018-09-06T09:55:51.059Z,6.12
2018-09-06T09:58:19.178Z,6.25
2018-09-06T10:00:47.303Z,6.62
2018-09-06T10:03:21.627Z,6.30
2018-09-06T10:05:55.206Z,6.50
2018-09-06T10:08:28.819Z,5.70
2018-09-06T10:10:56.928Z,6.47
2018-09-06T10:13:25.089Z,6.33
2018-09-06T10:15:53.352Z,6.35
2018-09-06T10:18:21.479Z,5.75
2018-09-06T10:20:49.584Z,5.92
2018-09-06T10:23:17.707Z,5.65
2018-09-06T10:25:45.832Z,5.87
2018-09-06T10:28:13.973Z,5.75
2018-09-06T10:30:42.088Z,6.12
2018-09-06T10:33:10.210Z,5.70
2018-09-06T10:35:38.336Z,5.55
2018-09-06T10:38:06.463Z,5.85
2018-09-06T10:40:34.599Z,5.33
2018-09-06T10:43:02.679Z,6.15
2018-09-06T10:45:30.811Z,5.62
2018-09-06T10:47:59.011Z,6.20
2018-09-06T10:50:27.051Z,5.72
2018-09-06T10:52:55.151Z,6.05
2018-09-06T10:55:23.274Z,5.90
2018-09-06T10:57:51.388Z,5.87
2018-09-06T11:00:19.575Z,5.80
2018-09-06T11:02:48.158Z,5.60
2018-09-06T11:05:16.351Z,6.05
2018-09-06T11:07:44.495Z,5.97
2018-09-06T11:10:12.637Z,5.55
2018-09-06T11:12:40.747Z,6.08
2018-09-06T11:15:08.945Z,6.60
2018-09-06T11:17:36.995Z,6.72
2018-09-06T11:20:05.119Z,6.12
2018-09-06T11:22:33.515Z,6.22
2018-09-06T11:25:01.359Z,6.55
2018-09-06T11:27:29.531Z,6.30
2018-09-06T11:29:57.622Z,6.05
2018-09-06T11:32:25.731Z,6.37
2018-09-06T11:34:53.876Z,6.67
2018-09-06T11:37:22.000Z,6.53
2018-09-06T11:39:50.148Z,6.87
2018-09-06T11:42:18.278Z,6.35
2018-09-06T11:44:46.397Z,6.15
2018-09-06T11:47:14.609Z,6.65
2018-09-06T11:49:42.671Z,6.33
2018-09-06T11:52:10.784Z,6.40
2018-09-06T11:54:38.942Z,6.00
2018-09-06T11:57:07.101Z,6.53
2018-09-06T11:59:35.223Z,6.50
2018-09-06T12:02:03.383Z,6.45
2018-09-06T12:04:31.483Z,6.28
2018-09-06T12:06:59.591Z,7.08
2018-09-06T12:09:27.737Z,6.53
2018-09-06T12:11:55.843Z,6.90
2018-09-06T12:14:24.003Z,6.62
2018-09-06T12:16:52.118Z,6.28
2018-09-06T12:19:20.275Z,6.53
2018-09-06T12:21:48.359Z,7.35
2018-09-06T12:24:16.475Z,7.78
2018-09-06T12:26:44.602Z,10.58
2018-09-06T12:29:12.747Z,10.25
2018-09-06T12:31:41.063Z,10.15
2018-09-06T12:34:09.190Z,10.15
2018-09-06T12:36:37.331Z,10.68
2018-09-06T12:39:07.455Z,10.78
2018-09-06T12:41:35.611Z,10.48
2018-09-06T12:44:04.475Z,10.03
2018-09-06T12:46:32.794Z,11.05
2018-09-06T12:49:00.939Z,10.68
2018-09-06T12:51:29.109Z,11.45
2018-09-06T12:53:57.471Z,10.18
2018-09-06T12:56:25.605Z,10.63
2018-09-06T12:58:53.719Z,11.43
2018-09-06T13:01:21.847Z,12.78
2018-09-06T13:03:49.958Z,12.47
2018-09-06T13:06:18.098Z,12.57
2018-09-06T13:08:46.214Z,12.70
2018-09-06T13:11:14.358Z,13.07
2018-09-06T13:13:42.474Z,13.03
2018-09-06T13:16:10.619Z,13.03
2018-09-06T13:18:38.826Z,12.17
2018-09-06T13:21:06.882Z,13.07
2018-09-06T13:23:35.008Z,14.40
2018-09-06T13:26:03.145Z,13.73
2018-09-06T13:28:31.775Z,15.27
2018-09-06T13:30:59.911Z,14.60
2018-09-06T13:33:28.084Z,16.33
2018-09-06T13:35:56.231Z,15.80
2018-09-06T13:38:24.404Z,15.83
2018-09-06T13:40:52.575Z,16.17
2018-09-06T13:43:20.721Z,16.00
2018-09-06T13:45:48.968Z,16.10
2018-09-06T13:48:17.163Z,16.73
2018-09-06T13:50:45.299Z,17.30
2018-09-06T13:53:13.428Z,16.13
2018-09-06T13:55:41.798Z,16.67
2018-09-06T13:58:09.915Z,15.63
2018-09-06T14:00:38.079Z,16.03
2018-09-06T14:03:06.207Z,15.13
2018-09-06T14:05:34.323Z,15.40
2018-09-06T14:08:02.922Z,14.73
2018-09-06T14:10:31.099Z,14.83
2018-09-06T14:12:59.222Z,14.33
2018-09-06T14:15:27.351Z,14.17
2018-09-06T14:17:55.616Z,15.03
2018-09-06T14:20:23.742Z,13.90
2018-09-06T14:22:52.006Z,13.80
2018-09-06T14:25:20.244Z,14.00
2018-09-06T14:27:48.407Z,14.47
2018-09-06T14:30:16.531Z,14.43
2018-09-06T14:32:44.662Z,13.43
2018-09-06T14:35:13.040Z,13.77
2018-09-06T14:37:41.171Z,13.60
2018-09-06T14:40:09.406Z,13.97
2018-09-06T14:42:37.566Z,13.93
2018-09-06T14:45:06.143Z,14.43
2018-09-06T14:47:34.286Z,14.10
2018-09-06T14:50:02.442Z,13.90
2018-09-06T14:52:30.579Z,13.90
2018-09-06T14:54:58.706Z,12.60
2018-09-06T14:57:26.847Z,13.63
2018-09-06T14:59:54.982Z,13.80
2018-09-06T15:02:23.115Z,13.30
2018-09-06T15:04:51.236Z,14.57
2018-09-06T15:07:19.368Z,13.67
2018-09-06T15:09:47.495Z,13.43
2018-09-06T15:12:15.631Z,13.80
2018-09-06T15:14:43.758Z,14.27
2018-09-06T15:17:11.901Z,13.93
2018-09-06T15:19:40.076Z,13.93
2018-09-06T15:22:08.226Z,13.60
2018-09-06T15:24:36.347Z,14.23
2018-09-06T15:27:04.687Z,14.63
2018-09-06T15:29:32.848Z,13.87
2018-09-06T15:32:01.002Z,14.03
2018-09-06T15:34:29.243Z,14.10
2018-09-06T15:36:57.400Z,12.73
2018-09-06T15:39:25.532Z,12.83
2018-09-06T15:41:53.667Z,13.83
2018-09-06T15:44:21.804Z,13.60
2018-09-06T15:46:49.993Z,13.00
2018-09-06T15:49:18.114Z,13.50
2018-09-06T15:51:46.238Z,13.40
2018-09-06T15:54:14.373Z,13.23
2018-09-06T15:56:42.498Z,13.17
2018-09-06T15:59:10.637Z,15.03
2018-09-06T16:01:38.806Z,14.63
2018-09-06T16:04:06.901Z,14.40
2018-09-06T16:06:35.039Z,14.13
2018-09-06T16:09:04.050Z,13.67
2018-09-06T16:11:32.329Z,14.50
2018-09-06T16:14:00.515Z,14.63
2018-09-06T16:16:28.759Z,13.97
2018-09-06T16:18:56.996Z,13.50
2018-09-06T16:21:25.220Z,14.03
2018-09-06T16:23:53.430Z,14.17
2018-09-06T16:26:22.515Z,13.77
2018-09-06T16:28:50.719Z,13.60
2018-09-06T16:31:18.854Z,13.60
2018-09-06T16:33:47.078Z,14.03
2018-09-06T16:36:15.315Z,12.67
2018-09-06T16:38:43.467Z,13.07
2018-09-06T16:41:11.681Z,14.13
2018-09-06T16:43:40.173Z,12.53
2018-09-06T16:46:08.351Z,12.63
2018-09-06T16:48:36.601Z,11.80
2018-09-06T16:51:05.068Z,12.43
2018-09-06T16:53:33.239Z,12.80
2018-09-06T16:56:01.355Z,12.20
2018-09-06T16:58:29.491Z,12.20
2018-09-06T17:00:57.725Z,12.13
2018-09-06T17:03:25.849Z,12.23
2018-09-06T17:05:53.963Z,11.10
2018-09-06T17:08:22.106Z,12.07
2018-09-06T17:10:50.236Z,11.00
2018-09-06T17:13:18.390Z,10.83
2018-09-06T17:15:46.505Z,11.40
2018-09-06T17:18:21.277Z,11.20
2018-09-06T17:20:49.394Z,11.10
2018-09-06T17:23:17.530Z,9.83
2018-09-06T17:25:45.639Z,10.80
2018-09-06T17:28:13.777Z,11.10
2018-09-06T17:30:41.920Z,12.20
2018-09-06T17:33:10.100Z,13.57
2018-09-06T17:35:38.211Z,12.53
2018-09-06T17:38:06.343Z,13.20
2018-09-06T17:40:34.475Z,13.67
2018-09-06T17:43:02.615Z,13.93
2018-09-06T17:45:30.748Z,13.30
2018-09-06T17:47:58.875Z,14.23
2018-09-06T17:50:27.155Z,13.83
2018-09-06T17:52:55.281Z,14.40
2018-09-06T17:55:23.427Z,13.30
2018-09-06T17:57:51.563Z,12.87
2018-09-06T18:00:20.022Z,13.03
2018-09-06T18:02:48.162Z,12.40
2018-09-06T18:05:16.306Z,11.57
2018-09-06T18:07:44.447Z,12.43
2018-09-06T18:10:12.752Z,11.43
2018-09-06T18:12:40.904Z,10.90
2018-09-06T18:15:09.174Z,10.70
2018-09-06T18:17:37.327Z,9.63
2018-09-06T18:20:05.554Z,9.00
2018-09-06T18:22:33.720Z,8.00
2018-09-06T18:25:01.864Z,8.37
2018-09-06T18:27:30.015Z,7.50
2018-09-06T18:29:58.174Z,7.90
2018-09-06T18:32:26.309Z,7.33
2018-09-06T18:34:54.448Z,7.50
2018-09-06T18:37:22.583Z,7.73
2018-09-06T18:39:50.711Z,7.60
2018-09-06T18:42:18.831Z,7.27
2018-09-06T18:44:46.994Z,6.97
2018-09-06T18:47:15.121Z,7.40
2018-09-06T18:49:43.316Z,7.27
2018-09-06T18:52:11.423Z,7.43
2018-09-06T18:54:39.651Z,7.33
2018-09-06T18:57:07.566Z,7.63
2018-09-06T18:59:35.712Z,7.50
2018-09-06T19:02:03.911Z,7.60
2018-09-06T19:04:32.003Z,7.07
2018-09-06T19:07:00.216Z,7.83
2018-09-06T19:09:28.339Z,7.70
2018-09-06T19:11:56.475Z,8.00
2018-09-06T19:14:24.607Z,7.30
2018-09-06T19:16:52.742Z,7.77
2018-09-06T19:19:20.875Z,9.07
2018-09-06T19:21:49.031Z,9.33
2018-09-06T19:24:17.159Z,9.50
2018-09-06T19:26:45.283Z,8.33
2018-09-06T19:29:13.411Z,8.07
2018-09-06T19:31:41.592Z,8.67
2018-09-06T19:34:11.199Z,8.67
2018-09-06T19:36:40.536Z,8.23
2018-09-06T19:39:10.534Z,8.53
2018-09-06T19:41:38.696Z,7.77
2018-09-06T19:44:07.150Z,8.70
2018-09-06T19:46:35.284Z,8.50
2018-09-06T19:49:03.453Z,8.50
2018-09-06T19:51:31.554Z,8.40
2018-09-06T19:53:59.902Z,8.00
2018-09-06T19:56:28.057Z,9.13
2018-09-06T19:58:56.165Z,9.00
2018-09-06T20:01:24.307Z,8.73
2018-09-06T20:03:52.439Z,8.60
2018-09-06T20:06:20.557Z,8.70
2018-09-06T20:08:48.663Z,8.40
2018-09-06T20:11:16.799Z,8.53
2018-09-06T20:13:44.969Z,8.60
2018-09-06T20:16:13.116Z,8.77
2018-09-06T20:18:41.248Z,9.27
2018-09-06T20:21:09.376Z,8.80
2018-09-06T20:23:37.494Z,9.13
2018-09-06T20:26:05.633Z,9.07
2018-09-06T20:28:33.816Z,9.90
2018-09-06T20:31:02.136Z,9.53
2018-09-06T20:33:30.254Z,8.73
2018-09-06T20:35:58.386Z,9.77
2018-09-06T20:38:26.565Z,9.60
2018-09-06T20:40:54.815Z,9.37
2018-09-06T20:43:22.938Z,9.53
2018-09-06T20:45:51.342Z,8.93
2018-09-06T20:48:19.471Z,9.57
2018-09-06T20:50:47.850Z,9.30
2018-09-06T20:53:16.301Z,9.60
2018-09-06T20:55:44.366Z,8.63
2018-09-06T20:58:12.499Z,10.47
2018-09-06T21:00:40.634Z,11.90
2018-09-06T21:03:08.785Z,12.30
2018-09-06T21:05:36.907Z,11.27
2018-09-06T21:08:05.049Z,11.40
2018-09-06T21:10:33.215Z,11.77
2018-09-06T21:13:01.317Z,12.67
2018-09-06T21:15:33.684Z,13.27
2018-09-06T21:18:01.819Z,13.60
2018-09-06T21:20:29.931Z,12.83
2018-09-06T21:22:58.104Z,13.33
2018-09-06T21:25:26.218Z,14.57
2018-09-06T21:27:54.380Z,14.90
2018-09-06T21:30:22.562Z,20.73
2018-09-06T21:32:50.651Z,21.27
2018-09-06T21:35:18.774Z,23.50
2018-09-06T21:37:46.967Z,22.03
2018-09-06T21:40:15.195Z,24.67
2018-09-06T21:42:43.233Z,24.33
2018-09-06T21:45:11.367Z,24.90
2018-09-06T21:47:39.910Z,25.37
2018-09-06T21:50:08.038Z,26.97
2018-09-06T21:52:36.181Z,26.20
2018-09-06T21:55:04.305Z,27.07
2018-09-06T21:57:32.438Z,28.33
2018-09-06T22:00:00.563Z,27.90
2018-09-06T22:02:34.157Z,29.43
2018-09-06T22:05:02.331Z,29.03
2018-09-06T22:07:30.474Z,31.33
2018-09-06T22:09:58.593Z,31.30
2018-09-06T22:12:26.740Z,33.63
2018-09-06T22:14:54.873Z,34.00
2018-09-06T22:17:23.012Z,35.57
2018-09-06T22:19:51.143Z,35.57
2018-09-06T22:22:19.306Z,38.30
2018-09-06T22:24:47.432Z,40.10
2018-09-06T22:27:15.598Z,39.13
2018-09-06T22:29:43.723Z,39.20
2018-09-06T22:32:11.854Z,41.23
2018-09-06T22:34:39.982Z,42.53
2018-09-06T22:37:08.148Z,42.10
2018-09-06T22:39:36.496Z,43.27
2018-09-06T22:42:04.638Z,42.33
2018-09-06T22:44:32.956Z,42.93
2018-09-06T22:47:01.090Z,43.03
2018-09-06T22:49:29.232Z,44.07
2018-09-06T22:51:57.348Z,45.73
2018-09-06T22:54:25.534Z,48.33
2018-09-06T22:56:53.670Z,47.47
2018-09-06T22:59:21.810Z,47.60
2018-09-06T23:01:49.954Z,49.30
2018-09-06T23:04:18.095Z,49.77
2018-09-06T23:06:46.228Z,51.37
2018-09-06T23:09:14.396Z,49.57
2018-09-06T23:11:42.518Z,50.53
2018-09-06T23:14:10.659Z,52.03
2018-09-06T23:16:38.783Z,52.20
2018-09-06T23:19:06.919Z,51.97
2018-09-06T23:21:35.044Z,53.53
2018-09-06T23:24:03.313Z,53.60
2018-09-06T23:26:31.458Z,54.33
2018-09-06T23:28:59.598Z,54.67
2018-09-06T23:31:27.719Z,55.00
2018-09-06T23:33:55.875Z,56.60
2018-09-06T23:36:23.998Z,58.73
2018-09-06T23:38:52.141Z,58.37
2018-09-06T23:41:20.274Z,58.40
2018-09-06T23:43:48.420Z,57.93
2018-09-06T23:46:16.541Z,58.90
2018-09-06T23:48:44.691Z,59.27
2018-09-06T23:51:12.813Z,58.03
2018-09-06T23:53:40.956Z,58.10
2018-09-06T23:56:09.084Z,61.40
2018-09-06T23:58:37.237Z,60.10
